LATI Airport Information

Runway Information
Runway 17 Length 9022 ft width 148 ft
Elevation 109 ft Threshold ft Heading 174
Runway 35 Length 9022 ft Width 148 ft
Elevation 126 ft Threshold ft Heading 354
Airport Frequencies
Type ACC Name ACC Frequency 127.5 MHZ
Type APP Name APP Frequency 133.15 MHZ
Type TWR Name TWR Frequency 122.5 MHZ
Airport Navaids
Type NDB Name Tirana Frequency 290 KHZ
Type VOR-DME Name Tirana Frequency 117700 KHZ
Airport Weather Information & NOTAM
ADDS - METARS form results

(0336 UTC 13 August 2022)
Data provider http://aviationweather.gov/metar/data/
 
METAR text: LATI 130320Z VRB02KT 9999 FEW024 BKN084 OVC110 20/17 Q1012 NOSIG
Conditions at: LATI (TIRANA , AL) observed 0320 UTC 13 August 2022
Temperature: 20.0°C (68°F)
Dewpoint: 17.0°C (63°F) [RH = 83%]
Pressure (altimeter): 29.88 inches Hg (1012.0 mb)
Winds: variable direction winds at 2 MPH (2 knots; 1.0 m/s)
Visibility: 6 or more miles (10+ km)
Ceiling: 8400 feet AGL
Clouds: few clouds at 2400 feet AGL
broken clouds at 8400 feet AGL
overcast cloud deck at 11000 feet AGL
Weather: no significant weather observed at this time

METAR text: LATI 130250Z VRB02KT 9999 FEW092 BKN110 20/17 Q1012 NOSIG
Conditions at: LATI (TIRANA , AL) observed 0250 UTC 13 August 2022
Temperature: 20.0°C (68°F)
Dewpoint: 17.0°C (63°F) [RH = 83%]
Pressure (altimeter): 29.88 inches Hg (1012.0 mb)
Winds: variable direction winds at 2 MPH (2 knots; 1.0 m/s)
Visibility: 6 or more miles (10+ km)
Ceiling: 11000 feet AGL
Clouds: few clouds at 9200 feet AGL
broken clouds at 11000 feet AGL
Weather: no significant weather observed at this time

Forecast for: LATI (TIRANA , AL)
Text: TAF LATI 122300Z 1300/1324 VRB05KT 9999 SCT060 BKN100 TX30/1312Z TN18/1303Z
Forecast period: 0000 UTC 13 August 2022 to 0000 UTC 14 August 2022
Forecast type: FROM: standard forecast or significant change
Winds: variable direction winds at 6 MPH (5 knots; 2.6 m/s)
Visibility: 6 or more miles (10+ km)
Ceiling: 10000 feet AGL
Clouds: scattered clouds at 6000 feet AGL
broken clouds at 10000 feet AGL
Weather: no significant weather forecast for this period
Text: TEMPO 1310/1316 32014KT FEW030CB BKN070
Forecast period: 1000 to 1600 UTC 13 August 2022
Forecast type: TEMPORARY: The following changes expected for less than half the time period
Winds: from the NW (320 degrees) at 16 MPH (14 knots; 7.2 m/s)
Visibility: missing
Ceiling: 7000 feet AGL
Clouds: few clouds at 3000 feet AGL
broken clouds at 7000 feet AGL
Weather: no significant weather forecast for this period
Text: PROB30
Forecast period: 1200 to 1400 UTC 13 August 2022
Forecast type: TEMPORARY: The following changes expected for less than half the time period
Visibility: missing
Ceiling: unknown
Clouds: missing
Weather: TS  (thunderstorm)